Time;durP1;ratioP1;P1;durP2;ratioP2;P2;SDS_P1;SDS_P2;PMS_P1;PMS_P2;Temp;Humidity;BMP_temperature;BMP_pressure;BME280_temperature;BME280_humidity;BME280_pressure;Samples;Min_cycle;Max_cycle;Signal;HPM_P1;HPM_P2
2021/06/15 00:00:28;;;;;;;11.00;2.30;;;13.80;62.90;;;;;;4973517;28;20373;-67
2021/06/15 00:02:56;;;;;;;12.10;2.85;;;13.80;62.90;;;;;;4974707;28;20054;-67
2021/06/15 00:05:25;;;;;;;8.88;2.50;;;13.80;63.00;;;;;;4939262;28;20051;-68
2021/06/15 00:07:52;;;;;;;11.88;2.58;;;13.80;63.20;;;;;;4973760;28;20051;-66
2021/06/15 00:10:26;;;;;;;7.57;2.63;;;13.80;63.30;;;;;;4973701;28;20062;-68
2021/06/15 00:12:55;;;;;;;13.02;2.88;;;13.80;63.50;;;;;;4973522;28;20051;-68
2021/06/15 00:15:25;;;;;;;8.73;2.55;;;13.80;63.50;;;;;;4956905;28;20039;-67
2021/06/15 00:17:54;;;;;;;13.90;2.63;;;13.80;63.60;;;;;;4974433;28;20500;-67
2021/06/15 00:20:23;;;;;;;11.98;2.90;;;13.80;63.80;;;;;;4973123;28;20057;-67
2021/06/15 00:22:51;;;;;;;11.45;2.90;;;13.80;63.90;;;;;;4974719;28;20058;-67
2021/06/15 00:25:19;;;;;;;13.55;2.75;;;13.70;63.90;;;;;;4975659;28;20062;-66
2021/06/15 00:27:48;;;;;;;9.38;2.58;;;13.70;63.80;;;;;;4957705;28;20047;-69
2021/06/15 00:30:18;;;;;;;9.35;2.25;;;13.70;63.90;;;;;;4958341;28;20063;-67
2021/06/15 00:32:48;;;;;;;13.25;2.70;;;13.70;64.10;;;;;;4968912;28;20058;-68
2021/06/15 00:35:18;;;;;;;12.77;2.42;;;13.70;64.20;;;;;;4993874;28;20050;-67
2021/06/15 00:37:47;;;;;;;10.27;2.67;;;13.70;64.30;;;;;;4978208;28;20376;-67
2021/06/15 00:40:17;;;;;;;10.88;2.47;;;13.70;64.40;;;;;;4979282;28;20057;-66
2021/06/15 00:42:46;;;;;;;11.35;2.67;;;13.70;64.40;;;;;;4982002;28;20061;-68
2021/06/15 00:45:17;;;;;;;11.38;2.30;;;13.60;64.60;;;;;;4952681;28;20392;-66
2021/06/15 00:47:47;;;;;;;11.48;2.58;;;13.60;64.70;;;;;;4978407;28;20051;-67
2021/06/15 00:50:17;;;;;;;13.43;2.88;;;13.60;64.70;;;;;;4980038;28;20055;-68
2021/06/15 00:52:46;;;;;;;10.98;2.35;;;13.60;64.80;;;;;;4962014;28;20066;-67
2021/06/15 00:55:15;;;;;;;16.38;3.50;;;13.60;64.80;;;;;;4962203;28;20051;-67
2021/06/15 00:57:43;;;;;;;11.25;3.10;;;13.60;64.80;;;;;;4963142;28;20055;-66
2021/06/15 01:00:12;;;;;;;12.30;2.90;;;13.50;64.80;;;;;;4978389;28;20393;-67
2021/06/15 01:02:41;;;;;;;12.55;3.05;;;13.40;64.90;;;;;;4962532;28;20046;-68
2021/06/15 01:05:14;;;;;;;8.77;2.50;;;13.50;65.00;;;;;;4946899;28;20050;-68
2021/06/15 01:08:16;;;;;;;12.90;2.67;;;13.40;65.00;;;;;;4961492;28;20469;-66
2021/06/15 01:11:13;;;;;;;10.85;2.38;;;13.40;65.00;;;;;;4962563;28;20393;-66
2021/06/15 01:14:06;;;;;;;11.70;2.60;;;13.30;65.20;;;;;;4960747;28;20059;-67
2021/06/15 01:16:37;;;;;;;9.23;2.25;;;13.30;65.10;;;;;;4978925;28;20061;-67
2021/06/15 01:19:43;;;;;;;17.67;3.78;;;13.30;65.20;;;;;;4979386;28;20065;-67
2021/06/15 01:22:43;;;;;;;8.85;2.22;;;13.30;65.40;;;;;;4961273;28;20043;-67
2021/06/15 01:25:27;;;;;;;10.70;2.90;;;13.30;65.40;;;;;;4943487;28;20055;-67
2021/06/15 01:28:02;;;;;;;10.90;2.45;;;13.30;65.50;;;;;;4961647;28;20457;-66
2021/06/15 01:30:49;;;;;;;12.18;2.88;;;13.20;65.60;;;;;;4945894;28;20058;-66
2021/06/15 01:33:19;;;;;;;12.02;3.05;;;13.20;65.70;;;;;;4961423;28;20057;-68
2021/06/15 01:35:52;;;;;;;8.02;2.60;;;13.20;65.60;;;;;;4961810;28;20380;-68
2021/06/15 01:38:27;;;;;;;14.10;3.17;;;13.20;65.70;;;;;;4961889;28;20053;-68
2021/06/15 01:41:09;;;;;;;7.13;2.50;;;13.20;65.70;;;;;;4960219;28;20120;-67
2021/06/15 01:43:49;;;;;;;6.75;2.40;;;13.10;65.70;;;;;;4961960;28;20055;-67
2021/06/15 01:46:22;;;;;;;9.30;2.95;;;13.10;65.70;;;;;;4977400;28;20054;-68
2021/06/15 01:48:58;;;;;;;10.32;2.47;;;13.00;65.80;;;;;;4946376;28;20057;-66
2021/06/15 01:51:28;;;;;;;9.45;2.75;;;13.00;65.90;;;;;;4977805;28;20074;-69
2021/06/15 01:54:10;;;;;;;10.10;2.60;;;13.00;66.00;;;;;;4960773;28;20065;-69
2021/06/15 01:56:48;;;;;;;12.07;4.03;;;13.00;66.10;;;;;;4961194;28;20046;-68
2021/06/15 01:59:20;;;;;;;13.43;3.45;;;12.90;66.10;;;;;;4978322;28;20051;-67
2021/06/15 02:01:55;;;;;;;13.90;3.15;;;12.90;66.10;;;;;;4960402;28;20066;-66
2021/06/15 02:04:26;;;;;;;9.10;2.92;;;12.80;66.10;;;;;;4961361;28;20054;-66
2021/06/15 02:06:57;;;;;;;12.35;3.08;;;12.80;66.10;;;;;;4944209;28;20047;-68
2021/06/15 02:09:31;;;;;;;11.57;2.80;;;12.80;66.10;;;;;;4930380;29;20370;-68
2021/06/15 02:12:27;;;;;;;11.77;2.95;;;12.80;66.10;;;;;;4931523;29;20043;-68
2021/06/15 02:15:21;;;;;;;7.63;2.58;;;12.80;66.20;;;;;;4956641;28;20055;-68
2021/06/15 02:18:21;;;;;;;9.07;3.00;;;12.80;66.20;;;;;;4893030;28;20392;-67
2021/06/15 02:21:11;;;;;;;12.30;2.83;;;12.80;66.30;;;;;;4960324;28;20050;-68
2021/06/15 02:23:44;;;;;;;12.27;3.05;;;12.70;66.50;;;;;;4944970;28;20489;-67
2021/06/15 02:26:17;;;;;;;12.10;3.60;;;12.70;66.60;;;;;;4960193;28;20061;-69
2021/06/15 02:28:52;;;;;;;10.77;2.47;;;12.70;66.60;;;;;;4961533;28;20062;-68
2021/06/15 02:31:40;;;;;;;10.10;2.92;;;12.70;66.60;;;;;;4960039;28;20070;-67
2021/06/15 02:34:13;;;;;;;11.85;2.50;;;12.70;66.60;;;;;;4959057;28;20054;-67
2021/06/15 02:36:51;;;;;;;7.95;2.38;;;12.70;66.60;;;;;;4960720;28;20065;-67
2021/06/15 02:39:32;;;;;;;9.18;2.90;;;12.70;66.60;;;;;;4959927;28;20053;-68
2021/06/15 02:42:10;;;;;;;7.88;2.90;;;12.70;66.60;;;;;;4961374;28;20047;-67
2021/06/15 02:44:42;;;;;;;13.45;3.10;;;12.70;66.70;;;;;;4984978;28;20062;-68
2021/06/15 02:47:14;;;;;;;10.10;2.65;;;12.60;66.80;;;;;;4996390;28;20043;-67
2021/06/15 02:49:50;;;;;;;11.27;2.83;;;12.60;66.70;;;;;;4997037;28;20468;-68
2021/06/15 02:52:37;;;;;;;8.88;2.88;;;12.60;66.70;;;;;;4997302;28;20357;-68
2021/06/15 02:55:16;;;;;;;12.88;2.83;;;12.60;66.80;;;;;;4979141;28;20066;-68
2021/06/15 02:57:44;;;;;;;8.95;3.10;;;12.50;66.90;;;;;;4967861;28;20061;-68
2021/06/15 03:00:13;;;;;;;10.43;2.90;;;12.50;66.80;;;;;;4976144;28;20071;-67
2021/06/15 03:02:42;;;;;;;10.02;3.15;;;12.50;67.00;;;;;;4960017;28;20067;-68
2021/06/15 03:05:16;;;;;;;13.73;2.78;;;12.40;67.10;;;;;;4977481;28;20050;-66
2021/06/15 03:07:49;;;;;;;9.48;2.75;;;12.40;67.10;;;;;;4959734;28;20061;-67
2021/06/15 03:10:19;;;;;;;11.23;3.10;;;12.50;67.00;;;;;;4977700;28;20057;-67
2021/06/15 03:13:00;;;;;;;6.13;2.35;;;12.50;66.90;;;;;;4976458;28;20070;-66
2021/06/15 03:15:42;;;;;;;10.23;2.80;;;12.50;66.90;;;;;;4974758;28;20061;-68
2021/06/15 03:18:16;;;;;;;10.15;2.65;;;12.40;66.90;;;;;;4968859;28;20054;-67
2021/06/15 03:20:48;;;;;;;12.57;3.10;;;12.40;66.90;;;;;;4975701;28;20066;-66
2021/06/15 03:23:30;;;;;;;12.05;2.58;;;12.40;66.90;;;;;;4960109;28;20285;-67
2021/06/15 03:26:00;;;;;;;8.23;2.83;;;12.40;67.00;;;;;;4959947;28;20051;-67
2021/06/15 03:28:31;;;;;;;12.35;2.88;;;12.30;67.00;;;;;;4958847;28;20074;-67
2021/06/15 03:31:03;;;;;;;8.82;2.80;;;12.30;66.90;;;;;;4961167;28;20050;-66
2021/06/15 03:33:37;;;;;;;7.93;2.90;;;12.30;67.00;;;;;;4958570;28;20054;-68
2021/06/15 03:36:10;;;;;;;13.93;2.75;;;12.30;67.00;;;;;;4959509;28;20048;-66
2021/06/15 03:38:40;;;;;;;9.50;2.90;;;12.30;67.00;;;;;;4944585;28;20055;-68
2021/06/15 03:41:11;;;;;;;9.40;2.95;;;12.20;67.00;;;;;;4958480;28;20055;-68
2021/06/15 03:43:49;;;;;;;10.27;2.78;;;12.20;67.10;;;;;;4959199;28;20055;-69
2021/06/15 03:46:19;;;;;;;8.95;2.67;;;12.20;67.20;;;;;;4975161;28;20051;-68
2021/06/15 03:48:50;;;;;;;14.77;2.78;;;12.20;67.20;;;;;;4959580;28;20055;-68
2021/06/15 03:51:23;;;;;;;10.50;2.65;;;12.20;67.20;;;;;;4959105;28;20070;-67
2021/06/15 03:53:52;;;;;;;9.93;2.75;;;12.20;67.20;;;;;;4975760;28;20055;-69
2021/06/15 03:56:21;;;;;;;14.95;2.80;;;12.20;67.20;;;;;;4976350;28;20055;-68
2021/06/15 03:58:50;;;;;;;9.85;3.35;;;12.20;67.20;;;;;;4976419;28;20054;-67
2021/06/15 04:01:19;;;;;;;12.13;3.25;;;12.20;67.30;;;;;;4975388;28;20066;-69
2021/06/15 04:03:48;;;;;;;11.40;3.10;;;12.20;67.30;;;;;;4976232;28;20077;-68
2021/06/15 04:06:17;;;;;;;12.57;3.08;;;12.10;67.40;;;;;;4975037;28;20504;-67
2021/06/15 04:08:46;;;;;;;13.55;3.60;;;12.10;67.50;;;;;;4956793;28;20362;-66
2021/06/15 04:11:17;;;;;;;11.18;3.13;;;12.10;67.70;;;;;;4957011;29;20059;-66
2021/06/15 04:13:45;;;;;;;12.45;3.42;;;12.10;67.90;;;;;;4956222;28;20063;-68
2021/06/15 04:16:15;;;;;;;7.45;2.83;;;12.10;68.00;;;;;;4958439;28;20058;-68
2021/06/15 04:18:45;;;;;;;10.63;3.25;;;12.10;68.00;;;;;;4958143;28;20491;-66
2021/06/15 04:21:15;;;;;;;12.48;3.03;;;12.10;68.00;;;;;;4974953;28;20051;-68
2021/06/15 04:23:53;;;;;;;8.55;2.92;;;12.10;68.10;;;;;;4976252;28;20051;-68
2021/06/15 04:26:21;;;;;;;14.52;2.85;;;12.20;68.20;;;;;;4974934;28;20054;-66
2021/06/15 04:28:49;;;;;;;9.73;3.30;;;12.10;68.20;;;;;;4947303;29;20081;-68
2021/06/15 04:31:18;;;;;;;11.27;2.97;;;12.10;68.20;;;;;;4956623;29;20062;-68
2021/06/15 04:33:51;;;;;;;8.80;2.90;;;12.20;68.20;;;;;;4908361;29;20066;-67
2021/06/15 04:36:20;;;;;;;8.85;2.78;;;12.20;68.20;;;;;;4956445;29;20051;-67
2021/06/15 04:39:07;;;;;;;12.15;3.13;;;12.20;68.20;;;;;;4924396;29;20362;-67
2021/06/15 04:41:38;;;;;;;9.55;2.75;;;12.10;68.40;;;;;;4939107;29;20051;-66
2021/06/15 04:44:10;;;;;;;7.65;2.97;;;12.20;68.40;;;;;;4956605;29;20055;-68
2021/06/15 04:46:53;;;;;;;15.77;3.28;;;12.10;68.50;;;;;;4947032;28;20055;-66
2021/06/15 04:49:55;;;;;;;11.75;3.25;;;12.10;68.70;;;;;;4972609;28;20050;-67
2021/06/15 04:52:28;;;;;;;11.95;3.33;;;12.20;68.90;;;;;;4938200;29;20062;-68
2021/06/15 04:54:59;;;;;;;12.90;3.05;;;12.10;68.90;;;;;;4938428;29;20059;-67
2021/06/15 04:57:36;;;;;;;9.68;3.45;;;12.10;69.00;;;;;;4956806;29;20055;-66
2021/06/15 05:00:05;;;;;;;13.13;3.25;;;12.10;69.00;;;;;;4955335;29;20421;-67
2021/06/15 05:02:37;;;;;;;16.52;3.25;;;12.10;69.10;;;;;;4940089;29;20488;-66
2021/06/15 05:05:06;;;;;;;10.15;3.30;;;12.20;69.30;;;;;;4940343;28;20070;-66
2021/06/15 05:07:35;;;;;;;11.43;3.40;;;12.20;69.20;;;;;;4939148;29;20051;-67
2021/06/15 05:10:05;;;;;;;8.82;3.53;;;12.20;69.30;;;;;;4939029;29;20051;-68
2021/06/15 05:12:39;;;;;;;11.18;3.80;;;12.20;69.40;;;;;;4956369;29;20063;-68
2021/06/15 05:15:10;;;;;;;14.13;3.75;;;12.30;69.50;;;;;;4922847;29;20062;-66
2021/06/15 05:17:46;;;;;;;9.90;3.30;;;12.20;69.50;;;;;;4961973;28;20051;-68
2021/06/15 05:20:16;;;;;;;10.07;3.63;;;12.30;69.60;;;;;;4957770;28;20480;-66
2021/06/15 05:22:46;;;;;;;8.57;3.40;;;12.30;69.70;;;;;;4974561;28;20051;-68
2021/06/15 05:25:19;;;;;;;9.32;3.78;;;12.30;69.80;;;;;;4976099;28;20066;-68
2021/06/15 05:27:49;;;;;;;13.48;4.20;;;12.30;69.90;;;;;;4977904;28;20052;-66
2021/06/15 05:30:17;;;;;;;17.23;3.97;;;12.30;69.90;;;;;;4946719;28;20086;-67
2021/06/15 05:32:46;;;;;;;10.75;4.25;;;12.40;70.00;;;;;;4979318;28;20392;-68
2021/06/15 05:35:15;;;;;;;10.65;3.55;;;12.40;70.00;;;;;;4944972;28;20047;-68
2021/06/15 05:37:44;;;;;;;11.63;4.07;;;12.40;70.10;;;;;;4978739;28;20078;-68
2021/06/15 05:40:13;;;;;;;17.70;4.43;;;12.50;70.20;;;;;;4977126;28;20050;-67
2021/06/15 05:42:41;;;;;;;16.70;4.15;;;12.50;70.40;;;;;;4961831;28;20057;-67
2021/06/15 05:45:10;;;;;;;14.82;3.90;;;12.50;70.50;;;;;;4991070;28;20058;-68
2021/06/15 05:47:38;;;;;;;14.65;4.20;;;12.60;70.50;;;;;;4980194;28;20143;-66
2021/06/15 05:50:07;;;;;;;14.05;4.15;;;12.60;70.50;;;;;;4997884;28;20054;-68
2021/06/15 05:52:36;;;;;;;12.77;3.88;;;12.60;70.60;;;;;;4980946;28;20058;-66
2021/06/15 05:55:05;;;;;;;12.20;3.65;;;12.60;70.70;;;;;;4979839;28;20062;-67
2021/06/15 05:57:34;;;;;;;17.45;4.40;;;12.70;70.80;;;;;;4998243;28;20361;-69
2021/06/15 06:00:03;;;;;;;13.90;3.95;;;12.70;70.80;;;;;;4997292;28;20054;-67
2021/06/15 06:02:40;;;;;;;15.02;4.40;;;12.80;70.80;;;;;;4997736;28;20046;-67
2021/06/15 06:10:27;;;;;;;18.48;4.85;;;12.80;70.50;;;;;;4997754;28;20058;-67
2021/06/15 06:12:55;;;;;;;18.90;5.10;;;12.80;70.40;;;;;;4996645;28;20054;-69
2021/06/15 06:15:23;;;;;;;19.05;4.38;;;12.80;70.40;;;;;;4996333;28;20058;-69
2021/06/15 06:17:52;;;;;;;21.80;4.85;;;12.90;70.40;;;;;;4997809;28;20054;-69
2021/06/15 06:20:20;;;;;;;18.38;4.45;;;12.90;70.50;;;;;;4996278;28;20046;-67
2021/06/15 06:22:48;;;;;;;14.20;4.60;;;12.90;70.50;;;;;;4998134;28;20046;-68
2021/06/15 06:25:17;;;;;;;17.13;4.82;;;12.90;70.70;;;;;;4966839;28;20066;-68
2021/06/15 06:27:45;;;;;;;18.88;5.10;;;13.00;70.90;;;;;;4977328;28;20062;-69
2021/06/15 06:30:13;;;;;;;12.40;4.80;;;13.00;70.90;;;;;;4960190;28;20051;-69
2021/06/15 06:32:43;;;;;;;18.45;5.10;;;13.10;70.90;;;;;;4977090;28;20070;-66
2021/06/15 06:35:11;;;;;;;17.17;4.63;;;13.10;71.10;;;;;;4976730;28;20058;-69
2021/06/15 06:37:39;;;;;;;19.92;4.22;;;13.10;71.00;;;;;;4977686;28;20465;-68
2021/06/15 06:40:07;;;;;;;31.10;4.80;;;13.10;71.20;;;;;;4976937;28;20047;-68
2021/06/15 06:42:35;;;;;;;20.85;4.63;;;13.20;71.50;;;;;;4977469;28;20389;-66
2021/06/15 06:45:05;;;;;;;19.25;4.15;;;13.20;71.50;;;;;;4989304;28;20065;-67
2021/06/15 06:47:32;;;;;;;18.80;4.47;;;13.30;71.30;;;;;;4978684;28;20066;-70
2021/06/15 06:50:02;;;;;;;17.17;4.15;;;13.30;71.30;;;;;;4996925;28;20169;-66
2021/06/15 06:52:30;;;;;;;14.95;3.67;;;13.30;71.40;;;;;;4996774;28;20066;-67
2021/06/15 06:54:59;;;;;;;17.10;3.88;;;13.30;71.40;;;;;;4995347;28;20058;-66
2021/06/15 06:57:27;;;;;;;15.60;4.53;;;13.40;71.50;;;;;;4996792;28;20069;-68
2021/06/15 06:59:55;;;;;;;22.80;5.03;;;13.50;71.60;;;;;;4962425;28;20058;-70
2021/06/15 07:02:24;;;;;;;26.00;5.10;;;13.50;71.80;;;;;;4979935;28;20132;-67
2021/06/15 07:04:52;;;;;;;17.63;4.18;;;13.50;71.80;;;;;;4976381;28;20046;-69
2021/06/15 07:07:20;;;;;;;19.65;4.70;;;13.60;71.80;;;;;;4975001;28;20065;-67
2021/06/15 07:09:49;;;;;;;21.30;3.92;;;13.60;71.80;;;;;;4976295;28;20051;-68
2021/06/15 07:12:16;;;;;;;20.83;4.32;;;13.70;71.90;;;;;;4960104;28;20050;-68
2021/06/15 07:14:45;;;;;;;22.90;4.63;;;13.80;71.80;;;;;;4975182;28;20055;-68
2021/06/15 07:17:14;;;;;;;17.88;4.93;;;13.80;71.70;;;;;;4960042;28;20046;-69
2021/06/15 07:19:43;;;;;;;17.42;4.25;;;13.90;71.70;;;;;;4958088;28;20047;-68
2021/06/15 07:22:11;;;;;;;14.30;4.00;;;13.90;71.60;;;;;;4962685;28;20066;-68
2021/06/15 07:24:39;;;;;;;24.45;4.90;;;13.90;71.50;;;;;;4969301;28;20070;-69
2021/06/15 07:27:08;;;;;;;26.13;4.85;;;14.00;71.40;;;;;;4960029;28;20051;-69
2021/06/15 07:29:36;;;;;;;23.98;4.43;;;14.10;71.40;;;;;;4957824;28;20050;-67
2021/06/15 07:32:05;;;;;;;23.10;3.97;;;14.20;71.30;;;;;;4972483;28;20051;-68
2021/06/15 07:34:33;;;;;;;15.48;3.40;;;14.20;71.10;;;;;;4950229;28;20070;-69
2021/06/15 07:37:02;;;;;;;17.92;4.00;;;14.30;70.90;;;;;;4964086;28;20051;-67
2021/06/15 07:39:30;;;;;;;15.82;3.30;;;14.40;70.90;;;;;;4972042;28;20051;-70
2021/06/15 07:42:04;;;;;;;14.75;3.45;;;14.50;70.70;;;;;;4942531;29;20047;-69
2021/06/15 07:44:32;;;;;;;15.63;3.35;;;14.50;70.50;;;;;;4961193;28;20377;-67
2021/06/15 07:47:01;;;;;;;16.02;3.38;;;14.60;70.20;;;;;;4974877;28;20062;-68
2021/06/15 07:49:30;;;;;;;11.68;3.70;;;14.60;69.80;;;;;;4974103;28;20050;-67
2021/06/15 07:51:59;;;;;;;20.02;2.67;;;14.70;69.40;;;;;;4968945;28;20058;-69
2021/06/15 07:54:35;;;;;;;11.43;2.70;;;14.70;69.10;;;;;;4959027;28;20055;-69
2021/06/15 07:57:06;;;;;;;14.35;2.97;;;14.70;68.50;;;;;;4970966;28;20054;-66
2021/06/15 07:59:34;;;;;;;14.80;2.58;;;14.80;68.30;;;;;;4974423;28;20050;-69
2021/06/15 08:02:03;;;;;;;19.65;3.80;;;14.80;67.90;;;;;;4952399;28;20066;-70
2021/06/15 08:04:31;;;;;;;23.02;2.95;;;14.80;67.20;;;;;;4958640;28;20051;-69
2021/06/15 08:06:59;;;;;;;11.48;2.60;;;14.80;66.70;;;;;;4960283;28;20070;-69
2021/06/15 08:09:27;;;;;;;7.63;2.15;;;14.80;66.10;;;;;;4952220;29;20054;-69
2021/06/15 08:11:56;;;;;;;7.93;1.40;;;14.90;65.40;;;;;;4957404;29;20055;-69
2021/06/15 08:14:25;;;;;;;8.18;1.70;;;14.90;64.50;;;;;;4962745;28;20062;-67
2021/06/15 08:16:53;;;;;;;4.65;1.25;;;14.90;63.10;;;;;;4971048;28;20051;-69
2021/06/15 08:19:21;;;;;;;11.90;2.70;;;14.90;61.90;;;;;;4955957;29;20473;-68
2021/06/15 08:21:49;;;;;;;10.48;1.92;;;15.00;61.40;;;;;;4948175;29;20047;-67
2021/06/15 08:24:18;;;;;;;7.18;1.83;;;15.00;61.60;;;;;;4950602;29;20488;-69
2021/06/15 08:26:46;;;;;;;9.52;2.00;;;15.00;61.60;;;;;;4955201;28;20055;-67
2021/06/15 08:29:14;;;;;;;11.40;2.65;;;15.00;61.50;;;;;;4936556;29;20059;-66
2021/06/15 08:31:42;;;;;;;8.43;2.15;;;15.10;61.60;;;;;;4928838;29;20054;-69
2021/06/15 08:34:11;;;;;;;9.20;2.33;;;15.20;61.50;;;;;;4950979;29;20062;-66
2021/06/15 08:36:39;;;;;;;11.88;2.40;;;15.20;61.30;;;;;;4913741;28;20493;-69
2021/06/15 08:39:09;;;;;;;5.43;1.90;;;15.20;61.10;;;;;;4943087;28;20495;-66
2021/06/15 08:41:38;;;;;;;8.68;2.08;;;15.30;60.80;;;;;;4918398;28;20050;-68
2021/06/15 08:44:08;;;;;;;9.80;1.88;;;15.30;60.60;;;;;;4957150;28;20421;-69
2021/06/15 08:46:36;;;;;;;10.88;2.10;;;15.40;60.40;;;;;;4953493;29;20059;-68
2021/06/15 08:49:06;;;;;;;12.35;2.35;;;15.50;59.80;;;;;;4937578;29;20058;-70
2021/06/15 08:51:36;;;;;;;6.80;1.92;;;15.60;59.60;;;;;;4953990;29;20063;-68
2021/06/15 08:54:07;;;;;;;13.30;2.40;;;15.60;59.60;;;;;;4939949;29;20051;-68
2021/06/15 08:56:36;;;;;;;8.65;1.95;;;15.70;59.20;;;;;;4953201;29;20051;-69
2021/06/15 08:59:26;;;;;;;5.45;1.70;;;15.80;58.90;;;;;;4949988;29;20075;-68
2021/06/15 09:01:56;;;;;;;12.77;2.25;;;15.90;58.50;;;;;;4955421;28;20697;-68
2021/06/15 09:04:24;;;;;;;9.98;2.15;;;16.00;58.30;;;;;;4925995;29;20043;-68
2021/06/15 09:06:57;;;;;;;9.00;1.85;;;16.10;58.00;;;;;;4956865;29;20055;-69
2021/06/15 09:09:43;;;;;;;7.38;2.10;;;16.20;57.80;;;;;;4966690;28;20054;-69
2021/06/15 09:12:14;;;;;;;9.50;1.73;;;16.20;57.50;;;;;;4958707;29;20055;-68
2021/06/15 09:14:54;;;;;;;7.43;1.83;;;16.20;57.80;;;;;;4955703;28;20058;-68
2021/06/15 09:17:25;;;;;;;8.02;1.98;;;16.20;57.70;;;;;;4928765;29;20385;-69
2021/06/15 09:20:18;;;;;;;9.68;1.88;;;16.30;57.30;;;;;;4964780;28;20043;-69
2021/06/15 09:22:57;;;;;;;8.95;2.00;;;16.30;56.90;;;;;;4978197;28;20393;-70
2021/06/15 09:25:27;;;;;;;8.65;2.28;;;16.40;57.20;;;;;;4959902;29;20051;-69
2021/06/15 09:27:57;;;;;;;9.02;2.15;;;16.60;57.20;;;;;;4955103;28;20049;-69
2021/06/15 09:30:28;;;;;;;9.57;2.15;;;16.60;56.80;;;;;;4962656;28;20053;-69
2021/06/15 09:33:08;;;;;;;9.88;2.08;;;16.60;56.60;;;;;;4944952;28;20055;-68
2021/06/15 09:35:36;;;;;;;6.75;2.08;;;16.70;56.60;;;;;;4978529;28;20065;-68
2021/06/15 09:38:04;;;;;;;8.80;1.92;;;16.70;56.40;;;;;;4979116;28;20051;-68
2021/06/15 09:40:37;;;;;;;6.40;1.95;;;16.70;56.00;;;;;;4960506;28;20058;-68
2021/06/15 09:43:06;;;;;;;;;;;16.70;55.70;;;;;;4978226;28;20055;-68
2021/06/15 09:45:43;;;;;;;4.95;1.77;;;16.70;55.60;;;;;;4963729;28;19926;-68
2021/06/15 09:48:27;;;;;;;5.70;1.77;;;16.70;55.50;;;;;;4944703;28;20047;-67
2021/06/15 09:51:00;;;;;;;11.82;2.03;;;16.60;55.30;;;;;;4971874;28;20058;-69
2021/06/15 09:53:37;;;;;;;7.60;1.93;;;16.60;55.20;;;;;;4988703;28;20058;-69
2021/06/15 09:56:18;;;;;;;10.55;1.75;;;16.70;55.20;;;;;;4941248;28;20500;-69
2021/06/15 09:58:56;;;;;;;7.65;1.60;;;16.80;55.10;;;;;;4977365;28;20055;-69
2021/06/15 10:01:42;;;;;;;8.35;1.85;;;17.00;54.90;;;;;;4974944;28;20051;-70
2021/06/15 10:04:16;;;;;;;7.53;1.80;;;17.20;54.00;;;;;;4977169;28;20054;-69
2021/06/15 10:06:57;;;;;;;10.15;2.33;;;17.30;53.70;;;;;;4944095;28;20043;-68
2021/06/15 10:09:42;;;;;;;11.18;1.73;;;17.30;53.40;;;;;;4960604;28;20066;-70
2021/06/15 10:12:10;;;;;;;8.27;2.00;;;17.40;53.00;;;;;;4975662;28;20350;-67
2021/06/15 10:14:39;;;;;;;11.52;1.65;;;17.30;52.80;;;;;;4959568;28;20058;-69
2021/06/15 10:17:17;;;;;;;6.32;1.60;;;17.40;52.40;;;;;;4979308;28;20066;-70
2021/06/15 10:19:51;;;;;;;8.43;1.80;;;17.40;52.00;;;;;;4978607;28;20061;-68
2021/06/15 10:22:19;;;;;;;6.07;1.73;;;17.50;51.90;;;;;;4996585;28;20059;-68
2021/06/15 10:24:54;;;;;;;6.65;1.50;;;17.60;51.60;;;;;;4996575;28;20114;-69
2021/06/15 10:27:22;;;;;;;7.30;2.20;;;17.80;51.40;;;;;;4994846;28;20057;-68
2021/06/15 10:29:54;;;;;;;15.27;1.80;;;17.80;51.20;;;;;;4963327;28;20042;-67
2021/06/15 10:32:28;;;;;;;9.85;1.98;;;18.00;51.50;;;;;;4979456;28;20357;-69
2021/06/15 10:35:06;;;;;;;10.70;2.00;;;18.20;51.40;;;;;;4995232;28;20047;-68
2021/06/15 10:37:35;;;;;;;9.43;1.90;;;18.30;51.10;;;;;;4979351;28;20058;-67
2021/06/15 10:40:31;;;;;;;9.50;2.03;;;18.50;51.00;;;;;;4976748;28;20393;-69
2021/06/15 10:43:22;;;;;;;5.65;1.70;;;18.70;50.40;;;;;;4976844;28;20070;-70
2021/06/15 10:45:57;;;;;;;7.80;1.63;;;18.80;49.80;;;;;;4969731;28;20062;-69
2021/06/15 10:48:31;;;;;;;10.98;2.03;;;18.80;49.70;;;;;;4962083;28;20073;-67
2021/06/15 10:51:02;;;;;;;9.68;2.13;;;19.00;49.50;;;;;;4979335;28;20384;-69
2021/06/15 10:53:40;;;;;;;5.65;1.63;;;19.30;49.30;;;;;;4971636;28;20042;-68
2021/06/15 10:56:11;;;;;;;9.77;1.75;;;19.50;49.40;;;;;;4976443;28;20061;-69
2021/06/15 10:58:42;;;;;;;8.88;1.85;;;19.80;49.00;;;;;;4975767;28;20055;-69
2021/06/15 11:01:18;;;;;;;5.80;1.92;;;19.90;48.60;;;;;;4974970;28;20061;-69
2021/06/15 11:03:49;;;;;;;8.70;1.73;;;20.20;47.90;;;;;;4959515;28;20481;-68
2021/06/15 11:06:19;;;;;;;6.35;1.63;;;20.30;47.40;;;;;;4958303;28;20058;-69
2021/06/15 11:09:13;;;;;;;9.50;2.05;;;20.50;46.80;;;;;;4976235;28;20051;-69
2021/06/15 11:11:46;;;;;;;8.30;1.70;;;20.70;46.40;;;;;;4943409;28;20069;-68
2021/06/15 11:14:22;;;;;;;4.90;1.63;;;20.80;46.10;;;;;;4979327;28;20065;-70
2021/06/15 11:16:57;;;;;;;9.88;1.67;;;20.80;45.80;;;;;;4995443;28;20491;-69
2021/06/15 11:19:25;;;;;;;5.78;1.90;;;20.80;45.60;;;;;;4953392;29;20047;-67
2021/06/15 11:21:55;;;;;;;5.80;1.70;;;20.80;44.80;;;;;;4955075;29;20047;-67
2021/06/15 11:24:48;;;;;;;5.40;1.55;;;20.80;44.80;;;;;;4956602;28;20055;-68
2021/06/15 11:27:19;;;;;;;6.53;1.60;;;20.80;44.10;;;;;;4955540;29;20051;-68
2021/06/15 11:29:50;;;;;;;4.10;1.60;;;20.70;44.10;;;;;;4939864;29;20501;-70
2021/06/15 11:32:23;;;;;;;6.57;1.65;;;20.60;44.20;;;;;;4939755;29;20051;-69
2021/06/15 11:37:29;;;;;;;5.82;1.65;;;20.70;44.80;;;;;;4956300;29;20055;-68
2021/06/15 11:40:19;;;;;;;6.93;1.90;;;20.70;45.00;;;;;;4956478;29;20059;-70
2021/06/15 11:43:09;;;;;;;5.15;1.55;;;20.80;44.40;;;;;;4956453;29;20062;-67
2021/06/15 11:45:41;;;;;;;5.15;1.85;;;20.80;43.80;;;;;;4973191;28;20046;-68
2021/06/15 11:48:18;;;;;;;6.00;1.45;;;20.90;43.80;;;;;;4975386;28;20054;-69
2021/06/15 11:50:49;;;;;;;7.28;1.67;;;21.00;43.60;;;;;;4975979;28;20057;-69
2021/06/15 11:53:19;;;;;;;8.60;1.88;;;21.10;43.20;;;;;;4958920;28;20065;-69
2021/06/15 11:56:02;;;;;;;5.45;1.40;;;21.20;43.00;;;;;;4959378;28;20066;-68
2021/06/15 11:58:30;;;;;;;5.75;1.40;;;21.30;42.70;;;;;;4976613;28;20054;-67
2021/06/15 12:01:10;;;;;;;9.77;1.88;;;21.30;42.60;;;;;;4958399;28;20055;-69
2021/06/15 12:03:44;;;;;;;4.57;1.70;;;21.30;42.30;;;;;;4960076;28;20384;-68
2021/06/15 12:06:16;;;;;;;7.55;1.67;;;21.40;42.20;;;;;;4959577;28;20047;-69
2021/06/15 12:08:45;;;;;;;5.20;1.85;;;21.50;42.30;;;;;;4976739;28;20055;-69
2021/06/15 12:11:16;;;;;;;8.95;1.70;;;21.60;42.50;;;;;;4976633;28;20054;-69
2021/06/15 12:13:46;;;;;;;8.57;1.45;;;21.70;42.30;;;;;;4974834;28;20055;-67
2021/06/15 12:16:25;;;;;;;8.40;1.70;;;21.80;41.80;;;;;;4959503;28;20051;-70
2021/06/15 12:18:59;;;;;;;6.38;1.85;;;21.90;41.50;;;;;;4992542;28;20046;-69
2021/06/15 12:21:34;;;;;;;4.70;1.50;;;22.00;41.40;;;;;;4994141;28;20065;-69
2021/06/15 12:24:06;;;;;;;7.97;1.60;;;22.10;41.10;;;;;;4978420;28;20338;-69
2021/06/15 12:26:41;;;;;;;10.10;1.98;;;22.20;40.60;;;;;;4994545;28;20058;-68
2021/06/15 12:29:12;;;;;;;5.25;1.40;;;22.20;40.30;;;;;;4962281;28;20046;-69
2021/06/15 12:31:43;;;;;;;5.32;1.80;;;22.20;40.10;;;;;;4978982;28;20054;-67
2021/06/15 12:34:19;;;;;;;6.03;1.90;;;22.20;40.20;;;;;;4993488;28;20468;-68
2021/06/15 12:36:50;;;;;;;7.00;1.88;;;22.30;40.30;;;;;;4979767;28;20058;-68
2021/06/15 12:39:19;;;;;;;5.05;1.58;;;22.50;39.90;;;;;;4958241;28;20043;-69
2021/06/15 12:41:58;;;;;;;6.00;1.77;;;22.70;39.10;;;;;;4957671;28;20046;-67
2021/06/15 12:44:29;;;;;;;5.55;1.77;;;22.60;38.80;;;;;;4982454;28;20061;-69
2021/06/15 12:47:00;;;;;;;7.75;1.95;;;22.60;38.70;;;;;;4976752;28;20046;-70
2021/06/15 12:49:29;;;;;;;7.13;1.77;;;22.50;38.80;;;;;;4978434;28;20054;-70
2021/06/15 12:52:12;;;;;;;8.48;2.05;;;22.60;39.00;;;;;;4995182;28;20054;-68
2021/06/15 12:54:43;;;;;;;5.50;1.88;;;22.70;39.00;;;;;;4994213;28;20073;-69
2021/06/15 12:57:19;;;;;;;4.63;1.35;;;22.70;39.00;;;;;;4995363;28;20384;-69
2021/06/15 13:00:03;;;;;;;10.35;2.20;;;22.80;39.00;;;;;;4994508;28;20069;-70
2021/06/15 13:02:31;;;;;;;7.63;2.05;;;22.90;38.80;;;;;;4995199;28;20061;-69
2021/06/15 13:05:06;;;;;;;8.95;2.00;;;23.00;38.80;;;;;;4977040;28;20050;-68
2021/06/15 13:07:35;;;;;;;6.47;1.83;;;23.10;38.80;;;;;;4976537;28;20054;-69
2021/06/15 13:10:18;;;;;;;6.75;2.00;;;23.20;38.70;;;;;;4993983;28;20065;-69
2021/06/15 13:12:48;;;;;;;6.43;1.77;;;23.30;38.00;;;;;;4983237;28;20058;-69
2021/06/15 13:15:22;;;;;;;5.80;1.95;;;23.40;37.40;;;;;;4973870;28;20363;-69
2021/06/15 13:18:03;;;;;;;9.18;1.85;;;23.50;37.00;;;;;;4958789;28;20062;-67